sensor_id;sensor_type;location;lat;lon;timestamp;temperature;humidity
40434;DHT22;26146;51.114;5.654;2023-07-30T00:01:32;17.90;99.90
40434;DHT22;26146;51.114;5.654;2023-07-30T00:05:33;17.70;99.90
40434;DHT22;26146;51.114;5.654;2023-07-30T00:09:34;17.80;99.90
40434;DHT22;26146;51.114;5.654;2023-07-30T00:13:37;17.90;99.90
40434;DHT22;26146;51.114;5.654;2023-07-30T00:17:39;17.90;99.90
40434;DHT22;26146;51.114;5.654;2023-07-30T00:21:40;18.00;99.90
40434;DHT22;26146;51.114;5.654;2023-07-30T00:25:44;18.00;99.90
40434;DHT22;26146;51.114;5.654;2023-07-30T00:29:45;18.10;99.90
40434;DHT22;26146;51.114;5.654;2023-07-30T00:33:46;18.10;99.90
40434;DHT22;26146;51.114;5.654;2023-07-30T00:37:48;18.10;99.90
40434;DHT22;26146;51.114;5.654;2023-07-30T00:41:49;18.10;99.90
40434;DHT22;26146;51.114;5.654;2023-07-30T00:45:50;18.00;99.90
40434;DHT22;26146;51.114;5.654;2023-07-30T00:49:51;18.00;99.90
40434;DHT22;26146;51.114;5.654;2023-07-30T00:53:52;18.10;99.90
40434;DHT22;26146;51.114;5.654;2023-07-30T00:57:53;18.00;99.90
40434;DHT22;26146;51.114;5.654;2023-07-30T01:01:56;18.10;99.90
40434;DHT22;26146;51.114;5.654;2023-07-30T01:05:58;17.90;99.90
40434;DHT22;26146;51.114;5.654;2023-07-30T01:10:00;17.90;99.90
40434;DHT22;26146;51.114;5.654;2023-07-30T01:14:01;17.90;99.90
40434;DHT22;26146;51.114;5.654;2023-07-30T01:18:02;17.70;99.90
40434;DHT22;26146;51.114;5.654;2023-07-30T01:22:04;17.50;99.90
40434;DHT22;26146;51.114;5.654;2023-07-30T01:26:12;17.50;99.90
40434;DHT22;26146;51.114;5.654;2023-07-30T01:30:25;17.30;99.90
40434;DHT22;26146;51.114;5.654;2023-07-30T01:34:28;17.20;99.90
40434;DHT22;26146;51.114;5.654;2023-07-30T01:38:30;17.00;99.90
40434;DHT22;26146;51.114;5.654;2023-07-30T01:42:31;17.00;99.90
40434;DHT22;26146;51.114;5.654;2023-07-30T01:46:33;17.10;99.90
40434;DHT22;26146;51.114;5.654;2023-07-30T01:50:34;17.00;99.90
40434;DHT22;26146;51.114;5.654;2023-07-30T01:54:35;17.10;99.90
40434;DHT22;26146;51.114;5.654;2023-07-30T01:58:36;17.20;99.90
40434;DHT22;26146;51.114;5.654;2023-07-30T02:02:37;17.30;99.90
40434;DHT22;26146;51.114;5.654;2023-07-30T02:06:38;17.10;99.90
40434;DHT22;26146;51.114;5.654;2023-07-30T02:10:39;17.20;99.90
40434;DHT22;26146;51.114;5.654;2023-07-30T02:14:40;17.00;99.90
40434;DHT22;26146;51.114;5.654;2023-07-30T02:18:41;17.10;99.90
40434;DHT22;26146;51.114;5.654;2023-07-30T02:22:42;17.10;99.90
40434;DHT22;26146;51.114;5.654;2023-07-30T02:26:43;16.90;99.90
40434;DHT22;26146;51.114;5.654;2023-07-30T02:30:44;16.80;99.90
40434;DHT22;26146;51.114;5.654;2023-07-30T02:34:45;16.80;99.90
40434;DHT22;26146;51.114;5.654;2023-07-30T02:38:46;17.00;99.90
40434;DHT22;26146;51.114;5.654;2023-07-30T02:42:47;17.10;99.90
40434;DHT22;26146;51.114;5.654;2023-07-30T02:46:48;17.20;99.90
40434;DHT22;26146;51.114;5.654;2023-07-30T02:50:49;17.20;99.90
40434;DHT22;26146;51.114;5.654;2023-07-30T02:54:50;17.10;99.90
40434;DHT22;26146;51.114;5.654;2023-07-30T02:58:51;17.00;99.90
40434;DHT22;26146;51.114;5.654;2023-07-30T03:02:52;17.30;99.90
40434;DHT22;26146;51.114;5.654;2023-07-30T03:06:54;17.20;99.90
40434;DHT22;26146;51.114;5.654;2023-07-30T03:10:58;17.00;99.90
40434;DHT22;26146;51.114;5.654;2023-07-30T03:14:59;17.00;99.90
40434;DHT22;26146;51.114;5.654;2023-07-30T03:19:00;17.30;99.90
40434;DHT22;26146;51.114;5.654;2023-07-30T03:23:01;17.10;99.90
40434;DHT22;26146;51.114;5.654;2023-07-30T03:27:02;17.20;99.90
40434;DHT22;26146;51.114;5.654;2023-07-30T03:31:03;17.20;99.90
40434;DHT22;26146;51.114;5.654;2023-07-30T03:35:04;17.30;99.90
40434;DHT22;26146;51.114;5.654;2023-07-30T03:39:06;17.50;99.90
40434;DHT22;26146;51.114;5.654;2023-07-30T03:43:06;17.40;99.90
40434;DHT22;26146;51.114;5.654;2023-07-30T03:47:07;17.30;99.90
40434;DHT22;26146;51.114;5.654;2023-07-30T03:51:08;17.30;99.90
40434;DHT22;26146;51.114;5.654;2023-07-30T03:55:09;17.20;99.90
40434;DHT22;26146;51.114;5.654;2023-07-30T03:59:11;17.10;99.90
40434;DHT22;26146;51.114;5.654;2023-07-30T04:03:12;17.20;99.90
40434;DHT22;26146;51.114;5.654;2023-07-30T04:07:13;17.00;99.90
40434;DHT22;26146;51.114;5.654;2023-07-30T04:11:14;17.30;99.90
40434;DHT22;26146;51.114;5.654;2023-07-30T04:15:15;17.50;99.90
40434;DHT22;26146;51.114;5.654;2023-07-30T04:19:17;17.50;99.90
40434;DHT22;26146;51.114;5.654;2023-07-30T04:23:18;17.60;99.90
40434;DHT22;26146;51.114;5.654;2023-07-30T04:27:19;17.60;99.90
40434;DHT22;26146;51.114;5.654;2023-07-30T04:31:20;17.40;99.90
40434;DHT22;26146;51.114;5.654;2023-07-30T04:35:21;17.50;99.90
40434;DHT22;26146;51.114;5.654;2023-07-30T04:39:22;17.50;99.90
40434;DHT22;26146;51.114;5.654;2023-07-30T04:43:23;17.30;99.90
40434;DHT22;26146;51.114;5.654;2023-07-30T04:47:24;17.30;99.90
40434;DHT22;26146;51.114;5.654;2023-07-30T04:51:25;17.20;99.90
40434;DHT22;26146;51.114;5.654;2023-07-30T04:55:26;17.40;99.90
40434;DHT22;26146;51.114;5.654;2023-07-30T04:59:27;17.50;99.90
40434;DHT22;26146;51.114;5.654;2023-07-30T05:03:28;17.40;99.90
40434;DHT22;26146;51.114;5.654;2023-07-30T05:07:29;17.70;99.90
40434;DHT22;26146;51.114;5.654;2023-07-30T05:11:30;17.70;99.90
40434;DHT22;26146;51.114;5.654;2023-07-30T05:15:31;17.80;99.90
40434;DHT22;26146;51.114;5.654;2023-07-30T05:19:32;17.80;99.90
40434;DHT22;26146;51.114;5.654;2023-07-30T05:23:34;17.90;99.90
40434;DHT22;26146;51.114;5.654;2023-07-30T05:27:36;17.80;99.90
40434;DHT22;26146;51.114;5.654;2023-07-30T05:31:37;17.90;99.90
40434;DHT22;26146;51.114;5.654;2023-07-30T05:35:38;18.00;99.90
40434;DHT22;26146;51.114;5.654;2023-07-30T05:39:39;18.10;99.90
40434;DHT22;26146;51.114;5.654;2023-07-30T05:43:40;18.00;99.90
40434;DHT22;26146;51.114;5.654;2023-07-30T05:47:41;18.00;99.90
40434;DHT22;26146;51.114;5.654;2023-07-30T05:51:42;18.10;99.90
40434;DHT22;26146;51.114;5.654;2023-07-30T05:55:43;18.20;99.90
40434;DHT22;26146;51.114;5.654;2023-07-30T05:59:44;18.10;99.90
40434;DHT22;26146;51.114;5.654;2023-07-30T06:03:45;18.30;99.90
40434;DHT22;26146;51.114;5.654;2023-07-30T06:07:46;18.30;99.90
40434;DHT22;26146;51.114;5.654;2023-07-30T06:11:47;18.60;99.90
40434;DHT22;26146;51.114;5.654;2023-07-30T06:15:49;18.60;99.90
40434;DHT22;26146;51.114;5.654;2023-07-30T06:19:50;18.90;99.90
40434;DHT22;26146;51.114;5.654;2023-07-30T06:23:51;19.00;99.90
40434;DHT22;26146;51.114;5.654;2023-07-30T06:27:54;19.10;99.90
40434;DHT22;26146;51.114;5.654;2023-07-30T06:31:56;19.30;99.90
40434;DHT22;26146;51.114;5.654;2023-07-30T06:35:57;19.50;99.90
40434;DHT22;26146;51.114;5.654;2023-07-30T06:39:58;19.50;99.90
40434;DHT22;26146;51.114;5.654;2023-07-30T06:43:59;19.40;99.90
40434;DHT22;26146;51.114;5.654;2023-07-30T06:48:00;19.70;99.90
40434;DHT22;26146;51.114;5.654;2023-07-30T06:52:01;20.10;99.90
40434;DHT22;26146;51.114;5.654;2023-07-30T06:56:02;20.40;99.90
40434;DHT22;26146;51.114;5.654;2023-07-30T07:00:04;20.50;99.90
40434;DHT22;26146;51.114;5.654;2023-07-30T07:04:05;20.70;99.90
40434;DHT22;26146;51.114;5.654;2023-07-30T07:08:06;20.70;99.90
40434;DHT22;26146;51.114;5.654;2023-07-30T07:12:08;20.60;99.90
40434;DHT22;26146;51.114;5.654;2023-07-30T07:16:09;20.70;99.90
40434;DHT22;26146;51.114;5.654;2023-07-30T07:20:12;20.60;99.90
40434;DHT22;26146;51.114;5.654;2023-07-30T07:24:13;20.90;99.90
40434;DHT22;26146;51.114;5.654;2023-07-30T07:28:14;21.00;99.90
40434;DHT22;26146;51.114;5.654;2023-07-30T07:32:15;21.10;99.90
40434;DHT22;26146;51.114;5.654;2023-07-30T07:36:16;21.10;99.90
40434;DHT22;26146;51.114;5.654;2023-07-30T07:40:17;21.10;99.90
40434;DHT22;26146;51.114;5.654;2023-07-30T07:44:18;20.80;99.90
40434;DHT22;26146;51.114;5.654;2023-07-30T07:48:19;20.80;99.90
40434;DHT22;26146;51.114;5.654;2023-07-30T07:52:20;20.80;99.90
40434;DHT22;26146;51.114;5.654;2023-07-30T07:56:21;20.70;99.90
40434;DHT22;26146;51.114;5.654;2023-07-30T08:00:22;20.90;99.90
40434;DHT22;26146;51.114;5.654;2023-07-30T08:04:23;21.10;99.90
40434;DHT22;26146;51.114;5.654;2023-07-30T08:08:28;21.30;99.90
40434;DHT22;26146;51.114;5.654;2023-07-30T08:12:31;21.40;99.90
40434;DHT22;26146;51.114;5.654;2023-07-30T08:16:33;21.70;99.90
40434;DHT22;26146;51.114;5.654;2023-07-30T08:20:35;21.90;99.90
40434;DHT22;26146;51.114;5.654;2023-07-30T08:24:36;22.20;99.90
40434;DHT22;26146;51.114;5.654;2023-07-30T08:28:37;22.60;99.90
40434;DHT22;26146;51.114;5.654;2023-07-30T08:32:38;22.40;99.90
40434;DHT22;26146;51.114;5.654;2023-07-30T08:36:39;22.20;99.90
40434;DHT22;26146;51.114;5.654;2023-07-30T08:40:40;22.30;99.90
40434;DHT22;26146;51.114;5.654;2023-07-30T08:44:41;22.00;99.90
40434;DHT22;26146;51.114;5.654;2023-07-30T08:48:42;21.90;99.90
40434;DHT22;26146;51.114;5.654;2023-07-30T08:52:46;22.00;99.90
40434;DHT22;26146;51.114;5.654;2023-07-30T08:56:47;22.50;99.90
40434;DHT22;26146;51.114;5.654;2023-07-30T09:00:50;22.70;99.90
40434;DHT22;26146;51.114;5.654;2023-07-30T09:04:54;22.10;99.90
40434;DHT22;26146;51.114;5.654;2023-07-30T09:08:57;22.20;99.90
40434;DHT22;26146;51.114;5.654;2023-07-30T09:12:58;22.80;99.90
40434;DHT22;26146;51.114;5.654;2023-07-30T09:16:59;22.90;99.90
40434;DHT22;26146;51.114;5.654;2023-07-30T09:21:02;23.30;99.90
40434;DHT22;26146;51.114;5.654;2023-07-30T09:25:03;23.30;99.90
40434;DHT22;26146;51.114;5.654;2023-07-30T09:29:08;22.90;99.90
40434;DHT22;26146;51.114;5.654;2023-07-30T09:33:20;23.20;99.90
40434;DHT22;26146;51.114;5.654;2023-07-30T09:37:22;23.10;99.90
40434;DHT22;26146;51.114;5.654;2023-07-30T09:41:24;23.10;99.90
40434;DHT22;26146;51.114;5.654;2023-07-30T09:45:26;23.30;99.90
40434;DHT22;26146;51.114;5.654;2023-07-30T09:49:29;23.10;99.90
40434;DHT22;26146;51.114;5.654;2023-07-30T09:53:31;22.90;99.90
40434;DHT22;26146;51.114;5.654;2023-07-30T09:57:36;22.30;99.90
40434;DHT22;26146;51.114;5.654;2023-07-30T10:01:45;22.70;99.90
40434;DHT22;26146;51.114;5.654;2023-07-30T10:05:47;23.40;99.90
40434;DHT22;26146;51.114;5.654;2023-07-30T10:09:51;23.70;99.90
40434;DHT22;26146;51.114;5.654;2023-07-30T10:13:54;24.20;99.90
40434;DHT22;26146;51.114;5.654;2023-07-30T10:17:57;24.10;99.90
40434;DHT22;26146;51.114;5.654;2023-07-30T10:26:27;24.20;99.20
40434;DHT22;26146;51.114;5.654;2023-07-30T10:30:32;23.90;99.70
40434;DHT22;26146;51.114;5.654;2023-07-30T10:34:46;24.20;99.30
40434;DHT22;26146;51.114;5.654;2023-07-30T10:38:50;23.50;99.80
40434;DHT22;26146;51.114;5.654;2023-07-30T10:42:51;23.60;99.60
40434;DHT22;26146;51.114;5.654;2023-07-30T10:46:56;23.40;99.80
40434;DHT22;26146;51.114;5.654;2023-07-30T10:50:57;23.40;99.40
40434;DHT22;26146;51.114;5.654;2023-07-30T10:55:01;23.80;98.80
40434;DHT22;26146;51.114;5.654;2023-07-30T10:59:04;24.10;98.20
40434;DHT22;26146;51.114;5.654;2023-07-30T11:03:08;23.10;98.60
40434;DHT22;26146;51.114;5.654;2023-07-30T11:07:17;23.00;99.90
40434;DHT22;26146;51.114;5.654;2023-07-30T11:11:19;22.80;99.90
40434;DHT22;26146;51.114;5.654;2023-07-30T11:15:20;22.70;99.90
40434;DHT22;26146;51.114;5.654;2023-07-30T11:19:21;22.90;99.90
40434;DHT22;26146;51.114;5.654;2023-07-30T11:23:23;22.40;99.90
40434;DHT22;26146;51.114;5.654;2023-07-30T11:27:24;22.40;99.90
40434;DHT22;26146;51.114;5.654;2023-07-30T11:31:26;22.50;99.90
40434;DHT22;26146;51.114;5.654;2023-07-30T11:35:31;22.60;99.90
40434;DHT22;26146;51.114;5.654;2023-07-30T11:39:32;22.70;99.90
40434;DHT22;26146;51.114;5.654;2023-07-30T11:43:39;22.90;99.90
40434;DHT22;26146;51.114;5.654;2023-07-30T11:47:40;23.30;99.90
40434;DHT22;26146;51.114;5.654;2023-07-30T11:51:41;23.60;99.90
40434;DHT22;26146;51.114;5.654;2023-07-30T11:55:44;23.70;99.90
40434;DHT22;26146;51.114;5.654;2023-07-30T11:59:45;23.80;99.90
40434;DHT22;26146;51.114;5.654;2023-07-30T12:03:47;23.80;99.90
40434;DHT22;26146;51.114;5.654;2023-07-30T12:07:48;23.80;99.90
40434;DHT22;26146;51.114;5.654;2023-07-30T12:15:55;23.80;99.90
40434;DHT22;26146;51.114;5.654;2023-07-30T12:20:00;23.70;99.90
40434;DHT22;26146;51.114;5.654;2023-07-30T12:24:01;23.80;99.90
40434;DHT22;26146;51.114;5.654;2023-07-30T12:28:03;23.90;99.90
40434;DHT22;26146;51.114;5.654;2023-07-30T12:32:04;23.80;99.90
40434;DHT22;26146;51.114;5.654;2023-07-30T12:36:05;24.10;99.90
40434;DHT22;26146;51.114;5.654;2023-07-30T12:40:06;23.50;99.90
40434;DHT22;26146;51.114;5.654;2023-07-30T12:44:08;23.00;99.90
40434;DHT22;26146;51.114;5.654;2023-07-30T12:48:10;22.70;99.90
40434;DHT22;26146;51.114;5.654;2023-07-30T12:52:11;22.90;99.90
40434;DHT22;26146;51.114;5.654;2023-07-30T12:56:12;22.70;99.90
40434;DHT22;26146;51.114;5.654;2023-07-30T13:00:16;22.90;99.90
40434;DHT22;26146;51.114;5.654;2023-07-30T13:04:18;23.70;99.40
40434;DHT22;26146;51.114;5.654;2023-07-30T13:08:20;23.60;99.90
40434;DHT22;26146;51.114;5.654;2023-07-30T13:12:21;23.60;98.60
40434;DHT22;26146;51.114;5.654;2023-07-30T13:16:22;23.50;98.90
40434;DHT22;26146;51.114;5.654;2023-07-30T13:20:23;23.30;99.90
40434;DHT22;26146;51.114;5.654;2023-07-30T13:24:24;23.60;99.20
40434;DHT22;26146;51.114;5.654;2023-07-30T13:28:25;23.90;98.20
40434;DHT22;26146;51.114;5.654;2023-07-30T13:32:26;24.20;97.60
40434;DHT22;26146;51.114;5.654;2023-07-30T13:36:27;24.10;97.60
40434;DHT22;26146;51.114;5.654;2023-07-30T13:40:28;24.10;97.70
40434;DHT22;26146;51.114;5.654;2023-07-30T13:44:29;24.00;97.30
40434;DHT22;26146;51.114;5.654;2023-07-30T13:48:30;24.20;97.20
40434;DHT22;26146;51.114;5.654;2023-07-30T13:52:31;24.10;97.20
40434;DHT22;26146;51.114;5.654;2023-07-30T13:56:32;24.40;96.60
40434;DHT22;26146;51.114;5.654;2023-07-30T14:00:35;24.50;95.70
40434;DHT22;26146;51.114;5.654;2023-07-30T14:04:36;24.60;96.00
40434;DHT22;26146;51.114;5.654;2023-07-30T14:08:38;24.90;96.20
40434;DHT22;26146;51.114;5.654;2023-07-30T14:12:39;25.40;95.20
40434;DHT22;26146;51.114;5.654;2023-07-30T14:16:40;25.30;94.80
40434;DHT22;26146;51.114;5.654;2023-07-30T14:20:43;25.10;94.10
40434;DHT22;26146;51.114;5.654;2023-07-30T14:24:44;25.50;93.50
40434;DHT22;26146;51.114;5.654;2023-07-30T14:28:45;25.50;94.10
40434;DHT22;26146;51.114;5.654;2023-07-30T14:32:46;25.50;94.90
40434;DHT22;26146;51.114;5.654;2023-07-30T14:36:47;25.80;94.30
40434;DHT22;26146;51.114;5.654;2023-07-30T14:40:48;25.90;93.20
40434;DHT22;26146;51.114;5.654;2023-07-30T14:44:49;25.80;93.30
40434;DHT22;26146;51.114;5.654;2023-07-30T14:48:50;25.60;93.10
40434;DHT22;26146;51.114;5.654;2023-07-30T14:52:51;25.40;93.70
40434;DHT22;26146;51.114;5.654;2023-07-30T14:56:54;25.60;93.10
40434;DHT22;26146;51.114;5.654;2023-07-30T15:00:55;25.80;93.30
40434;DHT22;26146;51.114;5.654;2023-07-30T15:04:56;25.80;93.00
40434;DHT22;26146;51.114;5.654;2023-07-30T15:08:57;25.90;93.50
40434;DHT22;26146;51.114;5.654;2023-07-30T15:12:59;25.90;92.30
40434;DHT22;26146;51.114;5.654;2023-07-30T15:17:00;25.80;92.00
40434;DHT22;26146;51.114;5.654;2023-07-30T15:21:01;25.90;91.80
40434;DHT22;26146;51.114;5.654;2023-07-30T15:25:02;25.40;91.40
40434;DHT22;26146;51.114;5.654;2023-07-30T15:29:04;25.50;91.20
40434;DHT22;26146;51.114;5.654;2023-07-30T15:33:08;25.60;90.80
40434;DHT22;26146;51.114;5.654;2023-07-30T15:37:09;25.30;91.30
40434;DHT22;26146;51.114;5.654;2023-07-30T15:41:10;25.40;90.90
40434;DHT22;26146;51.114;5.654;2023-07-30T15:45:11;25.00;90.40
40434;DHT22;26146;51.114;5.654;2023-07-30T15:49:12;24.90;91.40
40434;DHT22;26146;51.114;5.654;2023-07-30T15:53:13;24.50;91.50
40434;DHT22;26146;51.114;5.654;2023-07-30T15:57:14;24.40;91.40
40434;DHT22;26146;51.114;5.654;2023-07-30T16:01:15;24.30;91.80
40434;DHT22;26146;51.114;5.654;2023-07-30T16:05:16;24.60;90.70
40434;DHT22;26146;51.114;5.654;2023-07-30T16:09:17;24.50;91.30
40434;DHT22;26146;51.114;5.654;2023-07-30T16:13:18;24.00;92.20
40434;DHT22;26146;51.114;5.654;2023-07-30T16:17:20;24.10;92.80
40434;DHT22;26146;51.114;5.654;2023-07-30T16:21:21;23.90;93.00
40434;DHT22;26146;51.114;5.654;2023-07-30T16:25:21;23.60;94.00
40434;DHT22;26146;51.114;5.654;2023-07-30T16:29:22;23.60;94.30
40434;DHT22;26146;51.114;5.654;2023-07-30T16:33:24;23.30;94.80
40434;DHT22;26146;51.114;5.654;2023-07-30T16:37:25;22.30;99.90
40434;DHT22;26146;51.114;5.654;2023-07-30T16:41:26;22.00;99.90
40434;DHT22;26146;51.114;5.654;2023-07-30T16:45:27;21.20;99.90
40434;DHT22;26146;51.114;5.654;2023-07-30T16:49:28;20.80;99.90
40434;DHT22;26146;51.114;5.654;2023-07-30T16:53:29;20.30;99.90
40434;DHT22;26146;51.114;5.654;2023-07-30T16:57:30;20.10;99.90
40434;DHT22;26146;51.114;5.654;2023-07-30T17:01:33;20.30;99.90
40434;DHT22;26146;51.114;5.654;2023-07-30T17:05:34;20.00;99.90
40434;DHT22;26146;51.114;5.654;2023-07-30T17:09:35;19.90;99.90
40434;DHT22;26146;51.114;5.654;2023-07-30T17:13:36;20.10;99.90
40434;DHT22;26146;51.114;5.654;2023-07-30T17:17:37;19.90;99.90
40434;DHT22;26146;51.114;5.654;2023-07-30T17:21:38;20.20;99.90
40434;DHT22;26146;51.114;5.654;2023-07-30T17:25:39;20.50;99.90
40434;DHT22;26146;51.114;5.654;2023-07-30T17:29:40;20.60;99.90
40434;DHT22;26146;51.114;5.654;2023-07-30T17:33:41;20.80;99.90
40434;DHT22;26146;51.114;5.654;2023-07-30T17:37:42;21.00;99.90
40434;DHT22;26146;51.114;5.654;2023-07-30T17:41:43;20.70;99.90
40434;DHT22;26146;51.114;5.654;2023-07-30T17:45:45;20.70;99.90
40434;DHT22;26146;51.114;5.654;2023-07-30T17:49:47;20.60;99.90
40434;DHT22;26146;51.114;5.654;2023-07-30T17:53:48;20.60;99.90
40434;DHT22;26146;51.114;5.654;2023-07-30T17:57:49;20.60;99.90
40434;DHT22;26146;51.114;5.654;2023-07-30T18:01:50;20.20;99.90
40434;DHT22;26146;51.114;5.654;2023-07-30T18:05:51;20.20;99.90
40434;DHT22;26146;51.114;5.654;2023-07-30T18:09:52;19.90;99.90
40434;DHT22;26146;51.114;5.654;2023-07-30T18:13:53;19.60;99.90
40434;DHT22;26146;51.114;5.654;2023-07-30T18:17:54;19.70;99.90
40434;DHT22;26146;51.114;5.654;2023-07-30T18:21:55;19.70;99.90
40434;DHT22;26146;51.114;5.654;2023-07-30T18:25:56;19.60;99.90
40434;DHT22;26146;51.114;5.654;2023-07-30T18:29:57;19.70;99.90
40434;DHT22;26146;51.114;5.654;2023-07-30T18:33:58;19.70;99.90
40434;DHT22;26146;51.114;5.654;2023-07-30T18:38:00;19.70;99.90
40434;DHT22;26146;51.114;5.654;2023-07-30T18:42:01;19.70;99.90
40434;DHT22;26146;51.114;5.654;2023-07-30T18:46:02;19.50;99.90
40434;DHT22;26146;51.114;5.654;2023-07-30T18:50:03;19.30;99.90
40434;DHT22;26146;51.114;5.654;2023-07-30T18:54:04;19.40;99.90
40434;DHT22;26146;51.114;5.654;2023-07-30T18:58:05;19.40;99.90
40434;DHT22;26146;51.114;5.654;2023-07-30T19:02:07;19.20;99.90
40434;DHT22;26146;51.114;5.654;2023-07-30T19:06:08;19.20;99.90
40434;DHT22;26146;51.114;5.654;2023-07-30T19:10:10;19.10;99.90
40434;DHT22;26146;51.114;5.654;2023-07-30T19:14:11;18.90;99.90
40434;DHT22;26146;51.114;5.654;2023-07-30T19:18:12;18.90;99.90
40434;DHT22;26146;51.114;5.654;2023-07-30T19:22:13;19.00;99.90
40434;DHT22;26146;51.114;5.654;2023-07-30T19:26:14;19.20;99.90
40434;DHT22;26146;51.114;5.654;2023-07-30T19:30:16;19.10;99.90
40434;DHT22;26146;51.114;5.654;2023-07-30T19:34:17;19.00;99.90
40434;DHT22;26146;51.114;5.654;2023-07-30T19:38:18;18.70;99.90
40434;DHT22;26146;51.114;5.654;2023-07-30T19:42:20;18.50;99.90
40434;DHT22;26146;51.114;5.654;2023-07-30T19:46:21;18.70;99.90
40434;DHT22;26146;51.114;5.654;2023-07-30T19:50:22;18.80;99.90
40434;DHT22;26146;51.114;5.654;2023-07-30T19:54:26;18.90;99.90
40434;DHT22;26146;51.114;5.654;2023-07-30T19:58:29;18.80;99.90
40434;DHT22;26146;51.114;5.654;2023-07-30T20:02:30;18.70;99.90
40434;DHT22;26146;51.114;5.654;2023-07-30T20:06:31;18.60;99.90
40434;DHT22;26146;51.114;5.654;2023-07-30T20:10:35;18.70;99.90
40434;DHT22;26146;51.114;5.654;2023-07-30T20:14:36;18.70;99.90
40434;DHT22;26146;51.114;5.654;2023-07-30T20:18:37;18.60;99.90
40434;DHT22;26146;51.114;5.654;2023-07-30T20:22:40;18.70;99.90
40434;DHT22;26146;51.114;5.654;2023-07-30T20:26:42;18.80;99.90
40434;DHT22;26146;51.114;5.654;2023-07-30T20:30:43;18.80;99.90
40434;DHT22;26146;51.114;5.654;2023-07-30T20:34:44;18.70;99.90
40434;DHT22;26146;51.114;5.654;2023-07-30T20:38:45;18.60;99.90
40434;DHT22;26146;51.114;5.654;2023-07-30T20:42:46;18.60;99.90
40434;DHT22;26146;51.114;5.654;2023-07-30T20:46:48;18.50;99.90
40434;DHT22;26146;51.114;5.654;2023-07-30T20:50:49;18.60;99.90
40434;DHT22;26146;51.114;5.654;2023-07-30T20:54:50;18.60;99.90
40434;DHT22;26146;51.114;5.654;2023-07-30T20:58:52;18.50;99.90
40434;DHT22;26146;51.114;5.654;2023-07-30T21:02:52;18.70;99.90
40434;DHT22;26146;51.114;5.654;2023-07-30T21:06:53;18.60;99.90
40434;DHT22;26146;51.114;5.654;2023-07-30T21:10:54;18.60;99.90
40434;DHT22;26146;51.114;5.654;2023-07-30T21:14:55;18.80;99.90
40434;DHT22;26146;51.114;5.654;2023-07-30T21:18:56;18.70;99.90
40434;DHT22;26146;51.114;5.654;2023-07-30T21:22:57;18.60;99.90
40434;DHT22;26146;51.114;5.654;2023-07-30T21:26:58;18.60;99.90
40434;DHT22;26146;51.114;5.654;2023-07-30T21:31:01;18.80;99.90
40434;DHT22;26146;51.114;5.654;2023-07-30T21:35:02;18.80;99.90
40434;DHT22;26146;51.114;5.654;2023-07-30T21:39:03;18.70;99.90
40434;DHT22;26146;51.114;5.654;2023-07-30T21:43:04;18.70;99.90
40434;DHT22;26146;51.114;5.654;2023-07-30T21:47:05;18.70;99.90
40434;DHT22;26146;51.114;5.654;2023-07-30T21:51:06;18.60;99.90
40434;DHT22;26146;51.114;5.654;2023-07-30T21:55:09;18.70;99.90
40434;DHT22;26146;51.114;5.654;2023-07-30T21:59:11;18.60;99.90
40434;DHT22;26146;51.114;5.654;2023-07-30T22:03:12;18.50;99.90
40434;DHT22;26146;51.114;5.654;2023-07-30T22:07:13;18.60;99.90
40434;DHT22;26146;51.114;5.654;2023-07-30T22:11:15;18.70;99.90
40434;DHT22;26146;51.114;5.654;2023-07-30T22:15:16;18.60;99.90
40434;DHT22;26146;51.114;5.654;2023-07-30T22:19:17;18.50;99.90
40434;DHT22;26146;51.114;5.654;2023-07-30T22:23:18;18.40;99.90
40434;DHT22;26146;51.114;5.654;2023-07-30T22:27:19;18.50;99.90
40434;DHT22;26146;51.114;5.654;2023-07-30T22:31:20;18.60;99.90
40434;DHT22;26146;51.114;5.654;2023-07-30T22:35:21;18.60;99.90
40434;DHT22;26146;51.114;5.654;2023-07-30T22:39:22;18.70;99.90
40434;DHT22;26146;51.114;5.654;2023-07-30T22:43:23;18.80;99.90
40434;DHT22;26146;51.114;5.654;2023-07-30T22:47:24;18.70;99.90
40434;DHT22;26146;51.114;5.654;2023-07-30T22:51:25;18.70;99.90
40434;DHT22;26146;51.114;5.654;2023-07-30T22:55:26;18.60;99.90
40434;DHT22;26146;51.114;5.654;2023-07-30T22:59:27;18.60;99.90
40434;DHT22;26146;51.114;5.654;2023-07-30T23:03:28;18.40;99.90
40434;DHT22;26146;51.114;5.654;2023-07-30T23:07:29;18.40;99.90
40434;DHT22;26146;51.114;5.654;2023-07-30T23:11:31;18.40;99.90
40434;DHT22;26146;51.114;5.654;2023-07-30T23:15:35;18.40;99.90
40434;DHT22;26146;51.114;5.654;2023-07-30T23:19:36;18.40;99.90
40434;DHT22;26146;51.114;5.654;2023-07-30T23:23:37;18.40;99.90
40434;DHT22;26146;51.114;5.654;2023-07-30T23:27:38;18.40;99.90
40434;DHT22;26146;51.114;5.654;2023-07-30T23:31:39;18.30;99.90
40434;DHT22;26146;51.114;5.654;2023-07-30T23:35:40;18.30;99.90
40434;DHT22;26146;51.114;5.654;2023-07-30T23:39:41;18.40;99.90
40434;DHT22;26146;51.114;5.654;2023-07-30T23:43:42;18.50;99.90
40434;DHT22;26146;51.114;5.654;2023-07-30T23:47:43;18.50;99.90
40434;DHT22;26146;51.114;5.654;2023-07-30T23:51:44;18.60;99.90
40434;DHT22;26146;51.114;5.654;2023-07-30T23:55:45;18.40;99.90
40434;DHT22;26146;51.114;5.654;2023-07-30T23:59:46;18.30;99.90
